Time;durP1;ratioP1;P1;durP2;ratioP2;P2;SDS_P1;SDS_P2;PMS_P1;PMS_P2;Temp;Humidity;BMP_temperature;BMP_pressure;BME280_temperature;BME280_humidity;BME280_pressure;Samples;Min_cycle;Max_cycle;Signal;HPM_P1;HPM_P2
2021/11/17 02:31:31;;;;;;;33.08;14.45;;;4.80;99.90;;;;;;12276573;28;20051;-88
2021/11/17 02:38:13;;;;;;;31.65;14.23;;;4.80;99.90;;;;;;12294086;28;20055;-89
2021/11/17 02:44:33;;;;;;;31.58;15.30;;;4.80;99.90;;;;;;12261136;28;20109;-88
2021/11/17 02:50:54;;;;;;;30.42;13.82;;;4.70;99.90;;;;;;12237769;28;20073;-89
2021/11/17 02:57:02;;;;;;;31.65;13.55;;;4.60;99.90;;;;;;12241066;28;20062;-89
2021/11/17 03:03:13;;;;;;;27.02;12.98;;;4.70;99.90;;;;;;12224475;28;20051;-89
2021/11/17 03:09:25;;;;;;;28.25;13.32;;;4.60;99.90;;;;;;12232794;28;20133;-88
2021/11/17 03:15:35;;;;;;;29.65;13.60;;;4.60;99.90;;;;;;12245032;28;20055;-90
2021/11/17 03:21:50;;;;;;;26.80;12.85;;;4.60;99.90;;;;;;12261627;28;20741;-88
2021/11/17 03:28:05;;;;;;;26.05;11.23;;;4.60;99.90;;;;;;12242584;28;20081;-88
2021/11/17 03:34:22;;;;;;;20.83;9.63;;;4.50;99.90;;;;;;12257930;28;20162;-88
2021/11/17 03:40:54;;;;;;;29.65;11.90;;;4.30;99.90;;;;;;12248539;28;20055;-87
2021/11/17 03:47:21;;;;;;;22.38;10.80;;;4.30;99.90;;;;;;12253247;28;20059;-87
2021/11/17 03:53:55;;;;;;;25.80;11.10;;;4.30;99.90;;;;;;12231542;28;20082;-88
2021/11/17 04:00:19;;;;;;;27.55;11.75;;;4.30;99.90;;;;;;12230271;28;20546;-87
2021/11/17 04:06:48;;;;;;;26.40;11.50;;;4.30;99.90;;;;;;12222969;28;20067;-88
2021/11/17 04:13:02;;;;;;;28.52;12.30;;;4.20;99.90;;;;;;12255216;28;20374;-89
2021/11/17 04:19:22;;;;;;;37.97;13.37;;;4.20;99.90;;;;;;12238964;28;20051;-88
2021/11/17 04:25:55;;;;;;;31.60;13.15;;;4.20;99.90;;;;;;12267093;28;20043;-88
2021/11/17 04:32:31;;;;;;;33.45;12.95;;;4.20;99.90;;;;;;12253562;28;20173;-88
2021/11/17 04:38:36;;;;;;;36.00;13.02;;;4.20;99.90;;;;;;12208159;28;20439;-88
2021/11/17 04:44:43;;;;;;;;;;;4.30;99.90;;;;;;12253875;28;20059;-87
2021/11/17 04:50:53;;;;;;;33.10;13.48;;;4.20;99.90;;;;;;12238788;28;20029;-88
2021/11/17 04:57:13;;;;;;;34.75;13.60;;;4.20;99.90;;;;;;12251990;28;20984;-88
2021/11/17 05:03:37;;;;;;;32.65;13.30;;;4.20;99.90;;;;;;12251629;28;20051;-88
2021/11/17 05:09:48;;;;;;;36.85;13.07;;;4.20;99.90;;;;;;12251575;28;20062;-88
2021/11/17 05:16:08;;;;;;;36.78;13.43;;;4.20;99.90;;;;;;12235555;28;20593;-87
2021/11/17 05:22:10;;;;;;;29.77;12.30;;;4.30;99.90;;;;;;12248301;28;20126;-88
2021/11/17 05:28:31;;;;;;;31.42;13.02;;;4.20;99.90;;;;;;12269004;28;20491;-87
2021/11/17 05:34:52;;;;;;;35.28;13.38;;;4.20;99.90;;;;;;12213998;28;20075;-88
2021/11/17 05:41:22;;;;;;;36.50;13.85;;;4.20;99.90;;;;;;12256850;28;20048;-90
2021/11/17 05:47:49;;;;;;;39.42;13.00;;;4.20;99.90;;;;;;12258399;28;20094;-88
2021/11/17 05:54:36;;;;;;;35.72;12.68;;;4.30;99.90;;;;;;12249666;28;20134;-89
2021/11/17 06:01:13;;;;;;;36.25;13.40;;;4.30;99.90;;;;;;12248967;28;20047;-89
2021/11/17 06:07:15;;;;;;;38.33;13.50;;;4.20;99.90;;;;;;12232051;28;20506;-91
2021/11/17 06:13:17;;;;;;;35.70;13.82;;;4.20;99.90;;;;;;12248086;28;20055;-88
2021/11/17 06:19:40;;;;;;;37.00;13.33;;;4.30;99.90;;;;;;12249117;28;20066;-88
2021/11/17 06:25:43;;;;;;;35.90;13.20;;;4.30;99.90;;;;;;12245519;28;20137;-89
2021/11/17 06:31:47;;;;;;;37.50;13.75;;;4.30;99.90;;;;;;12245770;28;20069;-88
2021/11/17 06:37:51;;;;;;;44.78;16.75;;;4.30;99.90;;;;;;12247581;28;20062;-90
2021/11/17 06:43:52;;;;;;;46.80;17.77;;;4.30;99.90;;;;;;12246891;28;20039;-89
2021/11/17 06:49:54;;;;;;;45.92;17.67;;;4.30;99.90;;;;;;12255431;28;20105;-87
2021/11/17 06:55:57;;;;;;;48.92;18.33;;;4.40;99.90;;;;;;12238249;28;20054;-87
2021/11/17 07:02:05;;;;;;;49.05;17.70;;;4.40;99.90;;;;;;12255441;28;20051;-88
2021/11/17 07:08:07;;;;;;;43.53;18.63;;;4.40;99.90;;;;;;12270895;28;20051;-86
2021/11/17 07:14:11;;;;;;;46.47;18.75;;;4.30;99.90;;;;;;12262829;28;20123;-88
2021/11/17 07:20:14;;;;;;;54.43;20.17;;;4.30;99.90;;;;;;12276903;28;20199;-89
2021/11/17 07:26:19;;;;;;;54.83;20.55;;;4.40;99.90;;;;;;12269094;28;20054;-89
2021/11/17 07:32:23;;;;;;;51.63;19.85;;;4.40;99.90;;;;;;12255875;28;20138;-90
2021/11/17 07:38:25;;;;;;;;;;;4.50;99.90;;;;;;12269795;28;20059;-89
2021/11/17 07:44:27;;;;;;;51.95;21.17;;;4.70;99.90;;;;;;12262696;28;20026;-88
2021/11/17 07:50:30;;;;;;;53.70;22.02;;;4.70;99.90;;;;;;12249476;28;20055;-88
2021/11/17 07:56:38;;;;;;;46.40;22.02;;;4.70;99.90;;;;;;12254069;28;20106;-89
2021/11/17 08:02:43;;;;;;;50.95;23.38;;;4.70;99.90;;;;;;12269194;28;20412;-89
2021/11/17 08:08:46;;;;;;;51.50;23.45;;;4.80;99.90;;;;;;12269837;28;20484;-89
2021/11/17 08:14:48;;;;;;;58.63;25.58;;;4.90;99.90;;;;;;12251331;28;20405;-89
2021/11/17 08:20:50;;;;;;;56.65;25.45;;;4.90;99.90;;;;;;12242062;28;20950;-89
2021/11/17 08:26:53;;;;;;;60.53;25.33;;;4.90;99.90;;;;;;12255485;28;20051;-90
2021/11/17 08:32:56;;;;;;;67.40;27.30;;;5.00;99.90;;;;;;12270290;28;20085;-89
2021/11/17 08:38:57;;;;;;;59.65;26.05;;;5.10;99.90;;;;;;12248713;28;20109;-89
2021/11/17 08:44:59;;;;;;;58.08;24.83;;;5.10;99.90;;;;;;12250698;28;20159;-90
2021/11/17 08:51:07;;;;;;;49.55;23.75;;;5.20;99.90;;;;;;12264627;28;20043;-89
2021/11/17 08:57:09;;;;;;;46.38;22.77;;;5.20;99.90;;;;;;12251701;28;20652;-88
2021/11/17 09:03:14;;;;;;;45.22;21.77;;;5.20;99.90;;;;;;12249710;28;20484;-86
2021/11/17 09:09:19;;;;;;;49.72;22.70;;;5.30;99.90;;;;;;12255466;28;20066;-89
2021/11/17 09:15:24;;;;;;;42.97;20.45;;;5.40;99.90;;;;;;12268398;28;20051;-88
2021/11/17 09:21:30;;;;;;;45.35;21.73;;;5.50;99.90;;;;;;12262348;28;20048;-89
2021/11/17 09:27:32;;;;;;;43.22;20.83;;;5.40;99.90;;;;;;12235520;28;20047;-89
2021/11/17 09:33:37;;;;;;;47.10;22.00;;;5.40;99.90;;;;;;12252062;28;20146;-90
2021/11/17 09:39:42;;;;;;;44.20;21.45;;;5.40;99.90;;;;;;12250260;28;20058;-90
2021/11/17 09:45:47;;;;;;;41.47;20.77;;;5.40;99.90;;;;;;12240783;28;20077;-89
2021/11/17 09:51:54;;;;;;;44.55;20.83;;;5.50;99.90;;;;;;12265527;28;20047;-90
2021/11/17 09:58:13;;;;;;;43.83;20.80;;;5.60;99.90;;;;;;12252201;28;20154;-91
2021/11/17 10:04:24;;;;;;;44.15;20.50;;;5.70;99.90;;;;;;12254956;28;20051;-90
2021/11/17 10:17:52;;;;;;;40.95;20.05;;;5.80;99.90;;;;;;12266529;28;20567;-90
2021/11/17 10:24:14;;;;;;;37.58;18.60;;;5.80;99.90;;;;;;12180960;28;20968;-92
2021/11/17 10:30:36;;;;;;;36.80;18.05;;;5.80;99.90;;;;;;12268186;28;20066;-90
2021/11/17 10:36:57;;;;;;;39.20;18.52;;;5.80;99.90;;;;;;12255014;28;20051;-89
2021/11/17 10:43:07;;;;;;;40.00;18.70;;;5.80;99.90;;;;;;12272827;28;20496;-89
2021/11/17 10:49:13;;;;;;;39.67;17.90;;;5.80;99.90;;;;;;12271175;28;20443;-87
2021/11/17 10:55:18;;;;;;;39.53;18.85;;;5.80;99.90;;;;;;12254706;28;20111;-87
2021/11/17 11:01:43;;;;;;;38.50;18.33;;;5.80;99.90;;;;;;12254685;28;20051;-88
2021/11/17 11:07:51;;;;;;;;;;;5.90;99.90;;;;;;12242416;28;20110;-89
2021/11/17 11:14:22;;;;;;;39.33;18.00;;;5.90;99.90;;;;;;12248678;28;20361;-89
2021/11/17 11:20:26;;;;;;;38.38;18.20;;;6.10;99.90;;;;;;12250940;28;20072;-87
2021/11/17 11:26:27;;;;;;;37.60;18.25;;;6.10;99.90;;;;;;12252399;28;20130;-90
2021/11/17 11:32:29;;;;;;;37.95;18.80;;;6.20;99.90;;;;;;12240139;28;20058;-87
2021/11/17 11:38:34;;;;;;;41.42;18.90;;;6.10;99.90;;;;;;12252325;28;20667;-89
2021/11/17 11:44:47;;;;;;;40.47;18.90;;;6.20;99.90;;;;;;12268441;28;20055;-88
2021/11/17 11:50:57;;;;;;;42.10;20.13;;;6.30;99.90;;;;;;12247529;28;20055;-89
2021/11/17 11:57:34;;;;;;;41.92;19.42;;;6.30;99.90;;;;;;12277584;28;20290;-88
2021/11/17 12:03:44;;;;;;;43.03;19.70;;;6.30;99.90;;;;;;12252360;28;20626;-89
2021/11/17 12:09:57;;;;;;;44.83;20.58;;;6.40;99.90;;;;;;12249491;28;20105;-88
2021/11/17 12:16:06;;;;;;;50.75;21.40;;;6.40;99.90;;;;;;12259684;28;20073;-89
2021/11/17 12:22:13;;;;;;;50.90;21.63;;;6.40;99.90;;;;;;12199471;28;20048;-89
2021/11/17 12:28:17;;;;;;;50.15;22.55;;;6.40;99.90;;;;;;12215698;29;20131;-89
2021/11/17 12:34:40;;;;;;;49.47;22.98;;;6.40;99.90;;;;;;12208011;29;20047;-90
2021/11/17 12:40:48;;;;;;;48.97;22.90;;;6.50;99.90;;;;;;12211197;29;20134;-89
2021/11/17 12:47:00;;;;;;;56.75;24.67;;;6.50;99.90;;;;;;12199400;29;20492;-89
2021/11/17 12:53:22;;;;;;;55.47;23.40;;;6.60;99.90;;;;;;12198100;29;20126;-88
2021/11/17 12:59:42;;;;;;;56.13;25.08;;;6.60;99.90;;;;;;12216952;29;20062;-89
2021/11/17 13:06:05;;;;;;;67.57;26.73;;;6.70;99.90;;;;;;12196075;29;20148;-88
2021/11/17 13:12:11;;;;;;;56.00;25.10;;;6.70;99.90;;;;;;12202152;29;20130;-88
2021/11/17 13:18:45;;;;;;;47.55;23.25;;;6.80;99.90;;;;;;12210535;28;20788;-89
2021/11/17 13:24:49;;;;;;;50.05;22.38;;;6.80;99.90;;;;;;12229172;28;20063;-89
2021/11/17 13:30:52;;;;;;;45.75;21.77;;;6.90;99.90;;;;;;12237948;28;20097;-89
2021/11/17 13:37:14;;;;;;;40.13;21.23;;;7.00;99.90;;;;;;12237989;28;20059;-89
2021/11/17 13:43:17;;;;;;;39.33;20.27;;;7.00;99.90;;;;;;12257362;28;20047;-89
2021/11/17 13:49:19;;;;;;;33.15;19.05;;;7.00;99.90;;;;;;12256918;28;20055;-88
2021/11/17 13:55:25;;;;;;;40.05;20.02;;;7.10;99.90;;;;;;12242914;28;20051;-88
2021/11/17 14:01:27;;;;;;;33.45;18.92;;;7.20;99.90;;;;;;12235841;28;20082;-89
2021/11/17 14:07:32;;;;;;;32.90;17.52;;;7.20;99.90;;;;;;12256860;28;20047;-91
2021/11/17 14:13:35;;;;;;;30.65;16.60;;;7.40;99.90;;;;;;12252776;28;20589;-90
2021/11/17 14:19:37;;;;;;;33.92;17.73;;;7.50;99.90;;;;;;12263950;28;20106;-88
2021/11/17 14:25:42;;;;;;;34.40;17.92;;;7.40;99.90;;;;;;12237167;28;20051;-87
2021/11/17 14:31:54;;;;;;;38.25;17.52;;;7.40;99.90;;;;;;12243185;28;20579;-87
2021/11/17 14:38:00;;;;;;;34.83;17.90;;;7.50;99.90;;;;;;12260219;28;21205;-87
2021/11/17 14:44:05;;;;;;;39.05;18.73;;;7.40;99.90;;;;;;12256275;28;20047;-87
2021/11/17 14:50:09;;;;;;;35.58;18.90;;;7.40;99.90;;;;;;12260348;28;20155;-89
2021/11/17 14:56:12;;;;;;;35.00;18.60;;;7.50;99.90;;;;;;12239634;28;20065;-88
2021/11/17 15:02:14;;;;;;;37.63;19.05;;;7.50;99.90;;;;;;12238804;28;20152;-87
2021/11/17 15:08:17;;;;;;;42.80;20.73;;;7.40;99.90;;;;;;12251084;28;20047;-88
2021/11/17 15:14:20;;;;;;;33.88;17.33;;;7.40;99.90;;;;;;12219146;28;20114;-89
2021/11/17 15:20:23;;;;;;;32.70;17.60;;;7.40;99.90;;;;;;12249969;28;20151;-89
2021/11/17 15:26:26;;;;;;;36.67;18.98;;;7.30;99.90;;;;;;12255530;28;20051;-87
2021/11/17 15:32:29;;;;;;;35.45;17.17;;;7.30;99.90;;;;;;12265319;28;20102;-89
2021/11/17 15:38:31;;;;;;;41.67;18.00;;;7.10;99.90;;;;;;12255529;28;20062;-86
2021/11/17 15:44:34;;;;;;;38.95;19.02;;;7.00;99.90;;;;;;12239992;28;20575;-87
2021/11/17 15:50:44;;;;;;;38.25;18.75;;;6.80;99.90;;;;;;12268141;28;20051;-87
2021/11/17 15:56:47;;;;;;;45.38;19.95;;;6.70;99.90;;;;;;12247647;28;20062;-86
2021/11/17 16:02:50;;;;;;;48.10;20.33;;;6.80;99.90;;;;;;12267697;28;20043;-89
2021/11/17 16:08:56;;;;;;;45.03;20.13;;;6.90;99.90;;;;;;12261154;28;20491;-87
2021/11/17 16:14:58;;;;;;;48.35;20.08;;;6.80;99.90;;;;;;12249366;28;20491;-89
2021/11/17 16:21:06;;;;;;;45.30;20.60;;;6.70;99.90;;;;;;12259627;28;20058;-87
2021/11/17 16:27:08;;;;;;;;;;;6.70;99.90;;;;;;12251719;28;20047;-89
2021/11/17 16:33:12;;;;;;;55.45;21.50;;;6.70;99.90;;;;;;12246078;28;19958;-89
2021/11/17 16:39:14;;;;;;;47.73;20.20;;;6.70;99.90;;;;;;12249708;28;20587;-88
2021/11/17 16:45:21;;;;;;;50.83;19.85;;;6.70;99.90;;;;;;12258780;28;20051;-89
2021/11/17 16:51:24;;;;;;;48.28;20.48;;;6.60;99.90;;;;;;12246622;28;20047;-88
2021/11/17 17:04:53;;;;;;;55.33;21.20;;;6.60;99.90;;;;;;12266043;28;20555;-88
2021/11/17 17:10:56;;;;;;;44.30;19.70;;;6.70;99.90;;;;;;12249015;28;20047;-89
2021/11/17 17:16:57;;;;;;;50.75;20.80;;;6.70;99.90;;;;;;12249882;28;20059;-87
2021/11/17 17:22:59;;;;;;;49.60;20.20;;;6.70;99.90;;;;;;12253564;28;20483;-86
2021/11/17 17:29:02;;;;;;;49.38;20.15;;;6.60;99.90;;;;;;12261324;28;20051;-88
2021/11/17 17:35:06;;;;;;;47.35;20.10;;;6.50;99.90;;;;;;12259763;28;20051;-89
2021/11/17 17:41:10;;;;;;;53.35;21.27;;;6.50;99.90;;;;;;12243764;28;20051;-90
2021/11/17 17:47:13;;;;;;;;;;;6.60;99.90;;;;;;12259518;28;20051;-88
2021/11/17 17:53:18;;;;;;;52.63;21.50;;;6.60;99.90;;;;;;12243192;28;19927;-87
2021/11/17 17:59:20;;;;;;;60.67;21.35;;;6.70;99.90;;;;;;12243552;28;20512;-87
2021/11/17 18:05:25;;;;;;;60.53;21.35;;;6.70;99.90;;;;;;12256689;28;20065;-87
2021/11/17 18:11:27;;;;;;;49.03;20.73;;;6.70;99.90;;;;;;12238449;28;20059;-87
2021/11/17 18:17:29;;;;;;;48.10;20.02;;;6.70;99.90;;;;;;12240898;28;20050;-89
2021/11/17 18:23:31;;;;;;;51.90;20.70;;;6.60;99.90;;;;;;12242405;28;20094;-87
2021/11/17 18:29:34;;;;;;;48.28;20.45;;;6.60;99.90;;;;;;12244710;28;20046;-87
2021/11/17 18:35:37;;;;;;;54.03;21.10;;;6.60;99.90;;;;;;12251443;28;20086;-89
2021/11/17 18:42:05;;;;;;;51.05;19.98;;;6.50;99.90;;;;;;12251760;28;20695;-87
2021/11/17 18:48:08;;;;;;;59.78;23.08;;;6.40;99.90;;;;;;12278050;28;20051;-89
2021/11/17 18:54:10;;;;;;;61.00;23.90;;;6.40;99.90;;;;;;12263757;28;20094;-90
2021/11/17 19:00:40;;;;;;;61.60;24.85;;;6.40;99.90;;;;;;12247863;28;20047;-88
2021/11/17 19:06:42;;;;;;;69.95;23.77;;;6.40;99.90;;;;;;12253503;28;20051;-88
2021/11/17 19:12:43;;;;;;;66.07;24.50;;;6.40;99.90;;;;;;12242564;28;20051;-88
2021/11/17 19:18:46;;;;;;;71.43;24.88;;;6.30;99.90;;;;;;12253451;28;20059;-89
2021/11/17 19:24:50;;;;;;;71.18;26.50;;;6.40;99.90;;;;;;12252162;28;20047;-89
2021/11/17 19:30:53;;;;;;;71.47;25.17;;;6.40;99.90;;;;;;12253079;28;20179;-87
2021/11/17 19:36:55;;;;;;;75.57;27.02;;;6.30;99.90;;;;;;12266656;28;20133;-88
2021/11/17 19:42:58;;;;;;;83.40;26.08;;;6.40;99.90;;;;;;12264406;28;20607;-87
2021/11/17 19:49:03;;;;;;;87.05;28.05;;;6.40;99.90;;;;;;12247944;28;20725;-89
2021/11/17 19:55:10;;;;;;;75.68;26.75;;;6.40;99.90;;;;;;12264718;28;20150;-88
2021/11/17 20:01:12;;;;;;;77.47;26.75;;;6.40;99.90;;;;;;12248163;28;20067;-87
2021/11/17 20:07:15;;;;;;;73.47;26.40;;;6.40;99.90;;;;;;12258408;28;20058;-89
2021/11/17 20:13:18;;;;;;;76.82;26.55;;;6.40;99.90;;;;;;12259194;28;20532;-87
2021/11/17 20:19:22;;;;;;;85.55;27.52;;;6.50;99.90;;;;;;12244648;28;20089;-87
2021/11/17 20:25:26;;;;;;;72.25;26.90;;;6.60;99.90;;;;;;12245350;28;20050;-89
2021/11/17 20:31:29;;;;;;;78.40;25.27;;;6.60;99.90;;;;;;12263150;28;20142;-86
2021/11/17 20:37:31;;;;;;;67.93;23.50;;;6.70;99.90;;;;;;12247527;28;20645;-89
2021/11/17 20:43:33;;;;;;;55.72;19.98;;;6.70;99.90;;;;;;12249455;28;20043;-89
2021/11/17 20:49:36;;;;;;;60.90;18.75;;;6.80;99.90;;;;;;12305564;28;20094;-87
2021/11/17 20:55:38;;;;;;;47.03;18.58;;;6.90;99.90;;;;;;12266309;28;20641;-88
2021/11/17 21:01:40;;;;;;;45.42;16.95;;;6.80;99.90;;;;;;12249913;28;20051;-87
2021/11/17 21:07:43;;;;;;;48.28;17.40;;;6.80;99.90;;;;;;12264554;28;20070;-86
2021/11/17 21:13:46;;;;;;;50.85;18.33;;;6.60;99.90;;;;;;12240291;28;20047;-87
2021/11/17 21:19:48;;;;;;;49.33;18.15;;;6.60;99.90;;;;;;12265901;28;20067;-87
2021/11/17 21:25:51;;;;;;;50.50;18.38;;;6.60;99.90;;;;;;12247082;28;20055;-87
2021/11/17 21:31:53;;;;;;;59.83;20.50;;;6.60;99.90;;;;;;12257334;28;20058;-87
2021/11/17 21:37:56;;;;;;;64.10;22.42;;;6.60;99.90;;;;;;12251478;28;20556;-87
2021/11/17 21:43:58;;;;;;;65.68;23.63;;;6.50;99.90;;;;;;12266162;28;20062;-89
2021/11/17 21:50:00;;;;;;;61.15;22.40;;;6.50;99.90;;;;;;12247289;28;20055;-87
2021/11/17 21:56:02;;;;;;;59.30;22.90;;;6.60;99.90;;;;;;12262883;28;20055;-88
2021/11/17 22:02:10;;;;;;;67.72;21.95;;;6.50;99.90;;;;;;12252434;28;20078;-87
2021/11/17 22:08:19;;;;;;;60.72;21.90;;;6.40;99.90;;;;;;12245089;28;20051;-89
2021/11/17 22:14:21;;;;;;;51.90;19.50;;;6.40;99.90;;;;;;12260745;28;20206;-89
2021/11/17 22:20:31;;;;;;;58.35;20.50;;;6.30;99.90;;;;;;12245752;28;20094;-89
2021/11/17 22:26:35;;;;;;;54.63;20.20;;;6.20;99.90;;;;;;12247696;28;20261;-87
2021/11/17 22:32:40;;;;;;;61.35;20.63;;;6.20;99.90;;;;;;12252577;28;20150;-87
2021/11/17 22:38:43;;;;;;;59.05;21.17;;;6.20;99.90;;;;;;12247376;28;20130;-88
2021/11/17 22:44:44;;;;;;;58.25;21.35;;;6.20;99.90;;;;;;12244489;28;20405;-89
2021/11/17 22:50:47;;;;;;;62.22;20.85;;;6.10;99.90;;;;;;12243990;28;20053;-87
2021/11/17 22:56:48;;;;;;;63.05;21.17;;;6.10;99.90;;;;;;12248740;28;20117;-89
2021/11/17 23:02:51;;;;;;;62.90;21.13;;;6.00;99.90;;;;;;12261304;28;20359;-86
2021/11/17 23:08:54;;;;;;;56.80;20.98;;;6.00;99.90;;;;;;12307392;28;20047;-87
2021/11/17 23:14:56;;;;;;;57.47;20.02;;;6.00;99.90;;;;;;12265230;28;20632;-87
2021/11/17 23:21:02;;;;;;;58.85;20.35;;;6.00;99.90;;;;;;12250396;28;20492;-89
2021/11/17 23:27:06;;;;;;;59.75;19.90;;;5.90;99.90;;;;;;12258521;28;20059;-89
2021/11/17 23:33:10;;;;;;;52.60;18.65;;;6.00;99.90;;;;;;12253760;28;20047;-89
2021/11/17 23:39:12;;;;;;;53.97;20.27;;;5.90;99.90;;;;;;12252479;28;20080;-87
2021/11/17 23:45:20;;;;;;;53.75;18.77;;;5.90;99.90;;;;;;12256170;28;20090;-88
2021/11/17 23:51:24;;;;;;;57.13;18.65;;;6.00;99.90;;;;;;12268351;28;20050;-88
2021/11/17 23:57:26;;;;;;;47.60;17.60;;;6.00;99.90;;;;;;12264454;28;20125;-87
